Time;durP1;ratioP1;P1;durP2;ratioP2;P2;SDS_P1;SDS_P2;PMS_P1;PMS_P2;Temp;Humidity;BMP_temperature;BMP_pressure;BME280_temperature;BME280_humidity;BME280_pressure;Samples;Min_cycle;Max_cycle;Signal;HPM_P1;HPM_P2
2022/08/13 00:01:05;;;;;;;3.45;2.50;;;;;;;;;;2290284;58;21084;-77
2022/08/13 00:03:33;;;;;;;3.70;3.12;;;;;;;;;;2525235;55;21040;-77
2022/08/13 00:06:02;;;;;;;3.42;2.62;;;;;;;;;;2522693;55;21108;-78
2022/08/13 00:08:30;;;;;;;4.35;2.50;;;;;;;;;;2521767;55;21073;-77
2022/08/13 00:10:57;;;;;;;3.35;2.33;;;;;;;;;;2289474;58;21060;-78
2022/08/13 00:13:24;;;;;;;4.10;2.80;;;;;;;;;;2524539;54;21044;-77
2022/08/13 00:15:51;;;;;;;3.42;2.72;;;;;;;;;;2523430;55;21100;-77
2022/08/13 00:18:20;;;;;;;3.08;2.65;;;;;;;;;;2523916;55;21045;-77
2022/08/13 00:23:27;;;;;;;6.87;3.03;;;;;;;;;;2536040;53;22083;-77
2022/08/13 00:25:55;;;;;;;5.72;3.20;;;;;;;;;;2290060;58;21043;-78
2022/08/13 00:28:24;;;;;;;4.25;2.85;;;;;;;;;;2290778;58;21150;-78
2022/08/13 00:30:51;;;;;;;7.68;2.95;;;;;;;;;;2525953;55;21059;-79
2022/08/13 00:33:19;;;;;;;4.18;2.62;;;;;;;;;;2289920;58;21560;-78
2022/08/13 00:35:48;;;;;;;5.60;2.70;;;;;;;;;;2290355;58;21158;-78
2022/08/13 00:38:16;;;;;;;7.82;3.42;;;;;;;;;;2290151;58;21162;-78
2022/08/13 00:40:44;;;;;;;4.82;3.20;;;;;;;;;;2525875;54;21082;-77
2022/08/13 00:43:11;;;;;;;3.83;2.60;;;;;;;;;;2290926;58;21110;-78
2022/08/13 00:45:38;;;;;;;6.65;3.20;;;;;;;;;;2525760;54;21126;-77
2022/08/13 00:50:52;;;;;;;4.60;2.87;;;;;;;;;;2290582;58;21114;-76
2022/08/13 00:53:19;;;;;;;5.28;2.70;;;;;;;;;;2525597;54;21075;-79
2022/08/13 00:55:48;;;;;;;5.00;3.35;;;;;;;;;;2289458;58;21162;-76
2022/08/13 00:58:16;;;;;;;3.78;2.83;;;;;;;;;;2291016;58;21115;-78
2022/08/13 01:00:46;;;;;;;4.57;2.80;;;;;;;;;;2525607;54;21537;-78
2022/08/13 01:03:13;;;;;;;6.43;2.85;;;;;;;;;;2291050;58;21071;-76
2022/08/13 01:05:42;;;;;;;5.30;3.00;;;;;;;;;;2525234;54;21138;-78
2022/08/13 01:08:09;;;;;;;3.85;2.65;;;;;;;;;;2290067;58;21146;-76
2022/08/13 01:10:37;;;;;;;5.47;2.58;;;;;;;;;;2525320;55;21055;-78
2022/08/13 01:13:07;;;;;;;4.15;2.80;;;;;;;;;;2290869;58;21079;-77
2022/08/13 01:15:36;;;;;;;5.95;2.45;;;;;;;;;;2290304;58;21067;-78
2022/08/13 01:18:03;;;;;;;4.18;2.85;;;;;;;;;;2291431;58;21055;-79
2022/08/13 01:20:32;;;;;;;7.12;2.80;;;;;;;;;;2526091;54;21091;-78
2022/08/13 01:22:59;;;;;;;6.95;2.50;;;;;;;;;;2290326;58;21075;-76
2022/08/13 01:25:27;;;;;;;4.85;2.97;;;;;;;;;;2289909;58;21083;-78
2022/08/13 01:27:54;;;;;;;4.85;3.22;;;;;;;;;;2289483;58;21099;-79
2022/08/13 01:30:22;;;;;;;4.30;2.87;;;;;;;;;;2526249;54;21059;-77
2022/08/13 01:32:50;;;;;;;4.85;2.58;;;;;;;;;;2291394;58;21067;-78
2022/08/13 01:35:19;;;;;;;4.40;2.60;;;;;;;;;;2289541;58;21417;-76
2022/08/13 01:37:53;;;;;;;4.68;2.60;;;;;;;;;;2289561;58;21066;-79
2022/08/13 01:40:20;;;;;;;3.28;2.97;;;;;;;;;;2524582;54;21074;-79
2022/08/13 01:42:48;;;;;;;5.68;2.70;;;;;;;;;;2289245;58;21063;-79
2022/08/13 01:45:16;;;;;;;5.10;3.10;;;;;;;;;;2289669;58;21154;-77
2022/08/13 01:50:29;;;;;;;7.70;3.17;;;;;;;;;;2289989;58;21131;-77
2022/08/13 01:53:01;;;;;;;5.43;3.10;;;;;;;;;;2524242;54;21070;-77
2022/08/13 01:55:37;;;;;;;5.55;3.08;;;;;;;;;;2289353;58;21628;-78
2022/08/13 01:58:06;;;;;;;4.20;2.85;;;;;;;;;;2289226;58;21074;-76
2022/08/13 02:00:33;;;;;;;3.08;2.75;;;;;;;;;;2524634;54;21150;-78
2022/08/13 02:03:04;;;;;;;2.70;2.17;;;;;;;;;;2289565;58;21103;-78
2022/08/13 02:05:31;;;;;;;4.53;3.20;;;;;;;;;;2289482;58;21074;-77
2022/08/13 02:08:00;;;;;;;3.53;2.40;;;;;;;;;;2524103;55;21546;-79
2022/08/13 02:10:27;;;;;;;3.03;2.70;;;;;;;;;;2525185;55;21071;-78
2022/08/13 02:12:55;;;;;;;3.53;2.75;;;;;;;;;;2289309;58;21079;-75
2022/08/13 02:15:22;;;;;;;3.58;3.00;;;;;;;;;;2289057;58;21642;-78
2022/08/13 02:17:49;;;;;;;4.18;2.62;;;;;;;;;;2290449;58;21154;-78
2022/08/13 02:20:17;;;;;;;4.60;3.08;;;;;;;;;;2289380;58;21130;-78
2022/08/13 02:22:46;;;;;;;4.95;3.00;;;;;;;;;;2290146;58;21066;-77
2022/08/13 02:25:13;;;;;;;5.60;2.87;;;;;;;;;;2289205;58;21088;-78
2022/08/13 02:27:40;;;;;;;4.43;2.70;;;;;;;;;;2524383;55;21074;-78
2022/08/13 02:30:09;;;;;;;3.72;2.80;;;;;;;;;;2288966;58;21851;-77
2022/08/13 02:32:37;;;;;;;4.25;2.78;;;;;;;;;;2524317;54;21063;-77
2022/08/13 02:35:05;;;;;;;4.30;2.75;;;;;;;;;;2289674;58;21073;-78
2022/08/13 02:37:32;;;;;;;3.60;3.05;;;;;;;;;;2523614;54;21122;-78
2022/08/13 02:40:00;;;;;;;7.22;3.05;;;;;;;;;;2290047;58;21067;-77
2022/08/13 02:42:32;;;;;;;3.53;2.83;;;;;;;;;;2524922;54;21464;-77
2022/08/13 02:45:00;;;;;;;4.25;2.62;;;;;;;;;;2524294;54;21102;-79
2022/08/13 02:47:32;;;;;;;7.07;3.83;;;;;;;;;;2523758;55;21130;-79
2022/08/13 02:49:59;;;;;;;3.50;2.92;;;;;;;;;;2290028;58;21059;-79
2022/08/13 02:52:29;;;;;;;4.40;2.70;;;;;;;;;;2290222;58;21091;-78
2022/08/13 02:54:57;;;;;;;3.78;2.72;;;;;;;;;;2524241;54;22208;-78
2022/08/13 02:57:24;;;;;;;3.33;2.45;;;;;;;;;;2522869;55;21186;-78
2022/08/13 02:59:52;;;;;;;4.62;2.53;;;;;;;;;;2289502;58;21066;-78
2022/08/13 03:02:20;;;;;;;4.62;3.33;;;;;;;;;;2289317;58;21150;-78
2022/08/13 03:04:47;;;;;;;5.25;2.67;;;;;;;;;;2524527;54;21134;-77
2022/08/13 03:07:14;;;;;;;5.70;2.60;;;;;;;;;;2288973;58;21079;-79
2022/08/13 03:09:41;;;;;;;6.78;3.00;;;;;;;;;;2524346;54;21107;-77
2022/08/13 03:12:10;;;;;;;4.22;2.92;;;;;;;;;;2289729;58;21134;-78
2022/08/13 03:14:37;;;;;;;4.72;3.33;;;;;;;;;;2523994;54;21071;-78
2022/08/13 03:17:05;;;;;;;6.47;2.80;;;;;;;;;;2523441;54;21116;-77
2022/08/13 03:19:32;;;;;;;3.40;2.70;;;;;;;;;;2290221;58;21139;-76
2022/08/13 03:22:01;;;;;;;6.32;2.80;;;;;;;;;;2523897;54;21123;-79
2022/08/13 03:24:28;;;;;;;3.92;2.80;;;;;;;;;;2289784;58;21592;-78
2022/08/13 03:26:55;;;;;;;5.05;3.35;;;;;;;;;;2289019;58;21083;-77
2022/08/13 03:29:24;;;;;;;5.55;3.12;;;;;;;;;;2289177;58;21086;-76
2022/08/13 03:31:51;;;;;;;3.25;2.75;;;;;;;;;;2288895;58;21071;-78
2022/08/13 03:34:20;;;;;;;4.65;3.00;;;;;;;;;;2524026;54;21087;-79
2022/08/13 03:36:47;;;;;;;4.55;3.08;;;;;;;;;;2289043;58;21138;-78
2022/08/13 03:39:14;;;;;;;3.85;2.80;;;;;;;;;;2289206;58;21083;-77
2022/08/13 03:41:41;;;;;;;5.93;3.00;;;;;;;;;;2289630;58;21074;-78
2022/08/13 03:44:08;;;;;;;5.68;3.45;;;;;;;;;;2289836;58;21142;-78
2022/08/13 03:46:35;;;;;;;3.65;3.00;;;;;;;;;;2289397;58;21062;-76
2022/08/13 03:49:03;;;;;;;7.72;2.83;;;;;;;;;;2290027;58;21102;-76
2022/08/13 03:51:30;;;;;;;5.68;3.33;;;;;;;;;;2289705;58;21126;-76
2022/08/13 03:53:59;;;;;;;4.75;3.08;;;;;;;;;;2524425;54;21134;-78
2022/08/13 03:56:26;;;;;;;5.93;3.12;;;;;;;;;;2289019;58;21063;-78
2022/08/13 03:58:54;;;;;;;5.25;2.87;;;;;;;;;;2524374;54;22187;-78
2022/08/13 04:01:22;;;;;;;4.20;3.42;;;;;;;;;;2288915;58;21178;-78
2022/08/13 04:03:49;;;;;;;5.78;3.20;;;;;;;;;;2523836;54;21071;-79
2022/08/13 04:06:19;;;;;;;4.37;2.97;;;;;;;;;;2523902;54;22237;-78
2022/08/13 04:08:47;;;;;;;4.45;2.92;;;;;;;;;;2524349;54;21115;-79
2022/08/13 04:11:15;;;;;;;4.25;3.00;;;;;;;;;;2290029;58;21103;-78
2022/08/13 04:13:42;;;;;;;4.03;3.22;;;;;;;;;;2288526;58;21114;-78
2022/08/13 04:16:10;;;;;;;8.68;2.92;;;;;;;;;;2289406;59;21624;-77
2022/08/13 04:18:38;;;;;;;3.22;2.92;;;;;;;;;;2290078;58;21090;-78
2022/08/13 04:21:06;;;;;;;3.55;2.67;;;;;;;;;;2289703;59;21568;-79
2022/08/13 04:23:34;;;;;;;7.30;2.70;;;;;;;;;;2525247;55;21339;-77
2022/08/13 04:26:01;;;;;;;4.80;3.17;;;;;;;;;;2522868;55;21051;-78
2022/08/13 04:28:28;;;;;;;3.83;2.83;;;;;;;;;;2524760;54;21569;-78
2022/08/13 04:30:56;;;;;;;3.67;3.15;;;;;;;;;;2524528;55;21132;-77
2022/08/13 04:33:23;;;;;;;4.70;2.95;;;;;;;;;;2524848;54;21119;-79
2022/08/13 04:35:50;;;;;;;3.10;2.75;;;;;;;;;;2289292;58;21063;-77
2022/08/13 04:38:17;;;;;;;4.12;2.97;;;;;;;;;;2523605;55;21082;-77
2022/08/13 04:40:46;;;;;;;3.35;3.00;;;;;;;;;;2524410;54;21063;-78
2022/08/13 04:43:14;;;;;;;4.97;3.25;;;;;;;;;;2524165;55;21115;-78
2022/08/13 04:45:42;;;;;;;7.28;2.70;;;;;;;;;;2523881;54;21166;-76
2022/08/13 04:48:12;;;;;;;4.43;3.00;;;;;;;;;;2288879;59;21624;-76
2022/08/13 04:50:40;;;;;;;5.00;2.78;;;;;;;;;;2290175;58;21170;-78
2022/08/13 04:53:08;;;;;;;3.10;2.60;;;;;;;;;;2524549;54;21067;-79
2022/08/13 04:55:36;;;;;;;4.00;2.78;;;;;;;;;;2522214;54;21153;-78
2022/08/13 04:58:08;;;;;;;4.82;2.90;;;;;;;;;;2523664;54;21063;-78
2022/08/13 05:00:35;;;;;;;4.30;3.00;;;;;;;;;;2289047;58;21111;-78
2022/08/13 05:03:08;;;;;;;2.90;2.53;;;;;;;;;;2288686;58;21075;-78
2022/08/13 05:05:36;;;;;;;3.75;2.70;;;;;;;;;;2288892;59;21561;-78
2022/08/13 05:08:04;;;;;;;4.72;2.70;;;;;;;;;;2288363;58;21055;-78
2022/08/13 05:10:31;;;;;;;5.87;3.28;;;;;;;;;;2522733;54;21341;-77
2022/08/13 05:13:01;;;;;;;5.18;2.90;;;;;;;;;;2289917;58;21078;-78
2022/08/13 05:15:28;;;;;;;3.50;3.10;;;;;;;;;;2289167;58;21147;-78
2022/08/13 05:17:55;;;;;;;3.78;2.50;;;;;;;;;;2524722;55;21640;-77
2022/08/13 05:20:22;;;;;;;3.75;2.65;;;;;;;;;;2289735;58;21652;-78
2022/08/13 05:22:50;;;;;;;5.03;2.90;;;;;;;;;;2524325;54;21130;-77
2022/08/13 05:25:18;;;;;;;5.40;2.83;;;;;;;;;;2289874;58;21105;-77
2022/08/13 05:27:45;;;;;;;6.25;3.10;;;;;;;;;;2289978;58;21063;-79
2022/08/13 05:30:13;;;;;;;4.57;3.00;;;;;;;;;;2289798;58;21070;-78
2022/08/13 05:32:40;;;;;;;3.10;2.72;;;;;;;;;;2524358;54;21082;-78
2022/08/13 05:35:11;;;;;;;3.58;2.62;;;;;;;;;;2289563;58;21678;-79
2022/08/13 05:37:38;;;;;;;3.08;2.60;;;;;;;;;;2289524;58;21078;-79
2022/08/13 05:40:07;;;;;;;5.25;3.12;;;;;;;;;;2289465;58;21071;-78
2022/08/13 05:42:39;;;;;;;3.17;2.70;;;;;;;;;;2524962;54;21051;-76
2022/08/13 05:45:07;;;;;;;5.60;2.78;;;;;;;;;;2289594;58;21713;-78
2022/08/13 05:47:35;;;;;;;4.93;3.03;;;;;;;;;;2286933;58;21083;-78
2022/08/13 05:50:08;;;;;;;4.30;3.10;;;;;;;;;;2289188;58;21063;-78
2022/08/13 05:52:41;;;;;;;4.00;3.25;;;;;;;;;;2259497;59;21579;-76
2022/08/13 05:55:11;;;;;;;4.28;2.58;;;;;;;;;;2266221;59;21064;-75
2022/08/13 05:57:38;;;;;;;4.28;2.90;;;;;;;;;;2266601;59;21578;-76
2022/08/13 06:05:38;;;;;;;5.68;2.70;;;;;;;;;;2266877;55;21013;-75
2022/08/13 06:08:06;;;;;;;4.40;2.83;;;;;;;;;;2267753;59;21552;-76
2022/08/13 06:10:33;;;;;;;3.72;2.60;;;;;;;;;;2267355;59;21519;-76
2022/08/13 06:13:01;;;;;;;4.97;2.87;;;;;;;;;;2268366;59;21049;-75
2022/08/13 06:15:28;;;;;;;3.25;2.95;;;;;;;;;;2267595;59;21073;-76
2022/08/13 06:17:55;;;;;;;8.05;3.37;;;;;;;;;;2296037;55;21611;-76
2022/08/13 06:20:22;;;;;;;4.30;2.97;;;;;;;;;;2267549;59;21053;-76
2022/08/13 06:22:51;;;;;;;4.70;2.65;;;;;;;;;;2267713;59;21148;-77
2022/08/13 06:25:19;;;;;;;3.97;3.03;;;;;;;;;;2266295;59;21041;-77
2022/08/13 06:27:46;;;;;;;4.43;2.72;;;;;;;;;;2267440;59;21073;-76
2022/08/13 06:30:17;;;;;;;3.05;2.60;;;;;;;;;;2268189;59;21082;-76
2022/08/13 06:32:44;;;;;;;6.72;2.72;;;;;;;;;;2311878;55;21053;-76
2022/08/13 06:35:11;;;;;;;4.05;2.50;;;;;;;;;;2272026;55;21093;-77
2022/08/13 06:37:41;;;;;;;2.70;2.08;;;;;;;;;;2267998;57;21065;-76
2022/08/13 06:40:11;;;;;;;2.95;2.40;;;;;;;;;;2267296;59;21303;-76
2022/08/13 06:42:39;;;;;;;2.37;2.15;;;;;;;;;;2264957;59;21340;-77
2022/08/13 06:45:08;;;;;;;4.00;2.40;;;;;;;;;;2267593;59;21145;-77
2022/08/13 06:47:35;;;;;;;6.85;2.37;;;;;;;;;;2266656;59;21105;-77
2022/08/13 06:50:04;;;;;;;3.55;2.70;;;;;;;;;;2266833;59;21125;-77
2022/08/13 06:52:31;;;;;;;5.97;2.25;;;;;;;;;;2323878;57;21084;-76
2022/08/13 06:54:58;;;;;;;6.85;2.33;;;;;;;;;;2534150;53;21068;-76
2022/08/13 06:57:25;;;;;;;8.15;2.40;;;;;;;;;;2451756;53;21132;-77
2022/08/13 06:59:57;;;;;;;6.55;3.33;;;;;;;;;;2340569;57;21054;-76
2022/08/13 07:02:25;;;;;;;5.57;2.33;;;;;;;;;;2340233;57;21072;-77
2022/08/13 07:04:58;;;;;;;3.28;2.33;;;;;;;;;;2587278;53;21200;-77
2022/08/13 07:07:25;;;;;;;5.00;2.75;;;;;;;;;;2340296;57;21064;-76
2022/08/13 07:09:53;;;;;;;3.62;2.33;;;;;;;;;;2343423;53;21068;-76
2022/08/13 07:12:21;;;;;;;5.80;2.80;;;;;;;;;;2339491;57;21064;-76
2022/08/13 07:14:49;;;;;;;6.35;2.50;;;;;;;;;;2341298;53;21462;-75
2022/08/13 07:17:16;;;;;;;3.05;2.10;;;;;;;;;;2354310;53;21081;-75
2022/08/13 07:19:43;;;;;;;4.68;2.30;;;;;;;;;;2345702;53;21116;-74
2022/08/13 07:22:10;;;;;;;7.55;2.30;;;;;;;;;;2338657;57;21100;-74
2022/08/13 07:24:38;;;;;;;2.75;2.05;;;;;;;;;;2339238;57;21061;-75
2022/08/13 07:27:07;;;;;;;3.05;1.98;;;;;;;;;;2338028;57;21057;-75
2022/08/13 07:29:35;;;;;;;2.95;2.28;;;;;;;;;;2339754;57;21116;-76
2022/08/13 07:32:04;;;;;;;4.75;2.30;;;;;;;;;;2338619;57;21180;-75
2022/08/13 07:34:32;;;;;;;4.70;2.33;;;;;;;;;;2339759;57;21045;-77
2022/08/13 07:37:00;;;;;;;2.42;2.10;;;;;;;;;;2338931;57;21047;-77
2022/08/13 07:39:27;;;;;;;4.95;2.25;;;;;;;;;;2339792;57;21052;-77
2022/08/13 07:41:55;;;;;;;5.15;2.35;;;;;;;;;;2339903;57;21559;-76
2022/08/13 07:44:23;;;;;;;4.90;2.55;;;;;;;;;;2340340;57;21124;-77
2022/08/13 07:46:52;;;;;;;5.10;1.95;;;;;;;;;;2337712;57;21065;-77
2022/08/13 07:49:20;;;;;;;4.25;2.03;;;;;;;;;;2340838;53;21120;-76
2022/08/13 07:51:47;;;;;;;3.50;1.95;;;;;;;;;;2339311;57;21048;-76
2022/08/13 07:54:15;;;;;;;3.30;2.35;;;;;;;;;;2339803;57;21077;-79
2022/08/13 07:56:47;;;;;;;2.37;2.00;;;;;;;;;;2338897;57;21071;-77
2022/08/13 07:59:17;;;;;;;2.08;1.70;;;;;;;;;;2339353;57;21060;-76
2022/08/13 08:01:45;;;;;;;8.30;1.98;;;;;;;;;;2339989;57;21065;-76
2022/08/13 08:04:14;;;;;;;4.25;2.20;;;;;;;;;;2339599;57;21068;-77
2022/08/13 08:06:41;;;;;;;4.53;2.08;;;;;;;;;;2339515;57;21112;-76
2022/08/13 08:09:10;;;;;;;3.08;2.20;;;;;;;;;;2339606;57;21585;-75
2022/08/13 08:14:25;;;;;;;3.80;1.90;;;;;;;;;;2339589;53;21056;-75
2022/08/13 08:16:52;;;;;;;3.85;2.00;;;;;;;;;;2421974;53;21095;-76
2022/08/13 08:19:20;;;;;;;6.15;2.17;;;;;;;;;;2339600;57;21084;-79
2022/08/13 08:21:47;;;;;;;3.05;1.80;;;;;;;;;;2367864;53;21535;-79
2022/08/13 08:24:15;;;;;;;4.45;2.10;;;;;;;;;;2340726;55;21084;-79
2022/08/13 08:26:46;;;;;;;4.00;2.47;;;;;;;;;;2340622;57;21068;-79
2022/08/13 08:29:13;;;;;;;3.00;2.00;;;;;;;;;;2345607;53;21103;-79
2022/08/13 08:31:41;;;;;;;7.68;2.22;;;;;;;;;;2339673;57;21048;-79
2022/08/13 08:34:08;;;;;;;4.95;2.80;;;;;;;;;;2340615;57;21069;-80
2022/08/13 08:36:38;;;;;;;2.95;1.95;;;;;;;;;;2340071;57;21113;-79
2022/08/13 08:44:38;;;;;;;3.65;1.80;;;;;;;;;;2341308;53;21008;-79
2022/08/13 08:47:07;;;;;;;3.22;1.95;;;;;;;;;;2339967;57;21127;-79
2022/08/13 08:49:34;;;;;;;3.90;1.50;;;;;;;;;;2353758;53;21120;-80
2022/08/13 08:52:03;;;;;;;3.35;1.95;;;;;;;;;;2325349;57;21132;-80
2022/08/13 08:54:30;;;;;;;3.10;1.62;;;;;;;;;;2305919;55;21029;-79
2022/08/13 08:56:58;;;;;;;2.20;1.60;;;;;;;;;;2278894;55;21071;-77
2022/08/13 08:59:25;;;;;;;5.07;1.83;;;;;;;;;;2277191;55;21112;-77
2022/08/13 09:01:55;;;;;;;2.47;1.60;;;;;;;;;;2279472;55;21076;-77
2022/08/13 09:04:25;;;;;;;5.18;1.77;;;;;;;;;;2276445;59;21539;-76
2022/08/13 09:06:52;;;;;;;4.18;2.00;;;;;;;;;;2275804;59;21052;-76
2022/08/13 09:09:20;;;;;;;3.08;1.42;;;;;;;;;;2276178;59;21773;-77
2022/08/13 09:11:49;;;;;;;2.20;1.80;;;;;;;;;;2278876;55;21028;-76
2022/08/13 09:14:18;;;;;;;2.10;1.80;;;;;;;;;;2276027;59;21305;-77
2022/08/13 09:16:46;;;;;;;3.50;2.28;;;;;;;;;;2274980;59;21080;-76
2022/08/13 09:19:14;;;;;;;1.70;1.60;;;;;;;;;;2362723;55;21551;-78
2022/08/13 09:21:45;;;;;;;2.35;1.90;;;;;;;;;;2277057;59;21095;-78
2022/08/13 09:24:15;;;;;;;2.00;1.60;;;;;;;;;;2277695;59;21168;-78
2022/08/13 09:26:45;;;;;;;3.92;2.00;;;;;;;;;;2276891;59;21100;-78
2022/08/13 09:29:14;;;;;;;8.02;2.12;;;;;;;;;;2277443;59;21162;-79
2022/08/13 09:31:43;;;;;;;3.85;1.83;;;;;;;;;;2280322;55;21112;-78
2022/08/13 09:34:11;;;;;;;1.80;1.70;;;;;;;;;;2286637;55;21048;-78
2022/08/13 09:36:38;;;;;;;3.80;1.98;;;;;;;;;;2323031;55;21614;-79
2022/08/13 09:39:06;;;;;;;3.80;1.70;;;;;;;;;;2277445;59;21047;-79
2022/08/13 09:41:37;;;;;;;3.00;2.20;;;;;;;;;;2278403;59;21047;-79
2022/08/13 09:44:05;;;;;;;3.83;1.85;;;;;;;;;;2281626;55;21088;-79
2022/08/13 09:46:34;;;;;;;2.03;1.83;;;;;;;;;;2276153;59;21144;-79
2022/08/13 09:49:03;;;;;;;2.85;1.90;;;;;;;;;;2275429;59;21099;-79
2022/08/13 09:51:34;;;;;;;3.53;2.15;;;;;;;;;;2325283;55;21084;-79
2022/08/13 09:54:02;;;;;;;3.35;1.90;;;;;;;;;;2276689;59;21124;-79
2022/08/13 09:56:31;;;;;;;2.28;1.98;;;;;;;;;;2276286;59;21064;-78
2022/08/13 09:59:00;;;;;;;3.53;2.15;;;;;;;;;;2277474;59;21052;-79
2022/08/13 10:01:27;;;;;;;3.67;2.10;;;;;;;;;;2277204;59;21689;-79
2022/08/13 10:03:54;;;;;;;4.68;2.15;;;;;;;;;;2276492;58;21041;-79
2022/08/13 10:06:21;;;;;;;3.60;2.42;;;;;;;;;;2275310;59;21140;-78
2022/08/13 10:08:50;;;;;;;8.38;1.92;;;;;;;;;;2280588;55;21072;-79
2022/08/13 10:11:18;;;;;;;2.85;2.45;;;;;;;;;;2277786;55;21140;-78
2022/08/13 10:13:45;;;;;;;4.10;2.50;;;;;;;;;;2302501;55;21089;-79
2022/08/13 10:16:13;;;;;;;4.37;2.10;;;;;;;;;;2275810;59;21064;-79
2022/08/13 10:18:41;;;;;;;4.22;2.17;;;;;;;;;;2278851;55;21136;-79
2022/08/13 10:21:09;;;;;;;2.87;2.10;;;;;;;;;;2276818;56;21045;-79
2022/08/13 10:23:36;;;;;;;3.03;2.25;;;;;;;;;;2346330;55;21065;-78
2022/08/13 10:26:03;;;;;;;3.03;2.15;;;;;;;;;;2276211;59;21084;-79
2022/08/13 10:28:32;;;;;;;2.87;2.40;;;;;;;;;;2374048;55;21606;-79
2022/08/13 10:31:00;;;;;;;3.58;2.00;;;;;;;;;;2277193;59;21651;-78
2022/08/13 10:33:27;;;;;;;4.60;2.33;;;;;;;;;;2275878;59;21081;-79
2022/08/13 10:35:55;;;;;;;5.80;2.53;;;;;;;;;;2276363;59;21072;-79
2022/08/13 10:38:26;;;;;;;3.92;2.58;;;;;;;;;;2276112;59;21056;-78
2022/08/13 10:40:53;;;;;;;2.85;2.30;;;;;;;;;;2359582;55;21040;-78
2022/08/13 10:43:21;;;;;;;3.72;2.30;;;;;;;;;;2276443;59;21654;-79
2022/08/13 10:45:49;;;;;;;2.17;1.98;;;;;;;;;;2276130;59;21104;-79
2022/08/13 10:48:17;;;;;;;3.35;2.55;;;;;;;;;;2275623;59;21143;-78
2022/08/13 10:50:44;;;;;;;2.85;2.30;;;;;;;;;;2334404;55;21049;-79
2022/08/13 10:53:55;;;;;;;3.42;2.62;;;;;;;;;;2276582;59;21044;-79
2022/08/13 10:56:22;;;;;;;2.78;2.45;;;;;;;;;;2275336;59;21065;-79
2022/08/13 10:58:49;;;;;;;4.03;2.62;;;;;;;;;;2276003;59;21060;-77
2022/08/13 11:01:16;;;;;;;2.35;2.15;;;;;;;;;;2275737;59;21108;-77
2022/08/13 11:03:44;;;;;;;5.47;2.33;;;;;;;;;;2276294;59;21061;-77
2022/08/13 11:06:12;;;;;;;3.83;2.53;;;;;;;;;;2275504;59;21132;-77
2022/08/13 11:08:39;;;;;;;3.62;2.85;;;;;;;;;;2276555;59;21048;-77
2022/08/13 11:11:07;;;;;;;3.10;2.80;;;;;;;;;;2275163;59;21084;-77
2022/08/13 11:13:36;;;;;;;5.30;2.67;;;;;;;;;;2280326;54;21068;-77
2022/08/13 11:16:05;;;;;;;3.65;2.83;;;;;;;;;;2307393;55;21092;-77
2022/08/13 11:18:32;;;;;;;2.62;2.37;;;;;;;;;;2276081;59;21140;-77
2022/08/13 11:21:02;;;;;;;3.80;2.75;;;;;;;;;;2276436;59;21092;-77
2022/08/13 11:23:30;;;;;;;2.72;2.47;;;;;;;;;;2274798;59;21068;-77
2022/08/13 11:25:57;;;;;;;3.25;2.70;;;;;;;;;;2275729;59;21080;-77
2022/08/13 11:28:24;;;;;;;5.55;2.75;;;;;;;;;;2275971;59;21045;-77
2022/08/13 11:30:52;;;;;;;3.25;2.67;;;;;;;;;;2279402;55;21072;-77
2022/08/13 11:33:20;;;;;;;4.65;2.97;;;;;;;;;;2276245;59;21055;-77
2022/08/13 11:35:47;;;;;;;3.35;2.58;;;;;;;;;;2275374;59;21186;-77
2022/08/13 11:38:14;;;;;;;6.57;2.90;;;;;;;;;;2276201;59;21061;-77
2022/08/13 11:40:46;;;;;;;3.12;2.72;;;;;;;;;;2276936;59;21188;-77
2022/08/13 11:43:13;;;;;;;3.97;3.35;;;;;;;;;;2274601;59;21056;-77
2022/08/13 11:45:40;;;;;;;5.45;2.85;;;;;;;;;;2275304;59;21591;-77
2022/08/13 11:48:08;;;;;;;4.53;3.03;;;;;;;;;;2275679;59;21061;-77
2022/08/13 11:50:35;;;;;;;5.97;3.10;;;;;;;;;;2282687;53;68191;-91
2022/08/13 11:53:03;;;;;;;3.87;2.87;;;;;;;;;;2538723;54;21602;-86
2022/08/13 11:55:30;;;;;;;3.75;3.35;;;;;;;;;;2538150;54;21119;-89
2022/08/13 11:58:01;;;;;;;4.05;3.28;;;;;;;;;;2538229;54;21080;-85
2022/08/13 12:00:28;;;;;;;6.12;3.12;;;;;;;;;;2538189;54;21071;-86
2022/08/13 12:02:55;;;;;;;5.97;3.83;;;;;;;;;;2538204;54;21124;-88
2022/08/13 12:05:22;;;;;;;3.70;3.40;;;;;;;;;;2537017;54;21716;-86
2022/08/13 12:07:49;;;;;;;6.28;3.40;;;;;;;;;;2534704;54;21234;-87
2022/08/13 12:10:17;;;;;;;3.80;3.35;;;;;;;;;;2300478;58;21308;-83
2022/08/13 12:12:44;;;;;;;5.43;3.60;;;;;;;;;;2300380;58;21204;-86
2022/08/13 12:15:12;;;;;;;4.43;3.00;;;;;;;;;;2538147;54;21435;-91
2022/08/13 12:17:42;;;;;;;5.62;3.65;;;;;;;;;;2536704;54;21076;-86
2022/08/13 12:20:10;;;;;;;3.67;3.00;;;;;;;;;;2536992;54;21189;-85
2022/08/13 12:22:38;;;;;;;5.87;3.47;;;;;;;;;;2537313;54;21146;-90
2022/08/13 12:25:05;;;;;;;3.87;3.37;;;;;;;;;;2537752;54;21045;-85
2022/08/13 12:27:33;;;;;;;3.67;3.33;;;;;;;;;;2535527;54;21092;-86
2022/08/13 12:30:00;;;;;;;5.72;3.58;;;;;;;;;;2537136;54;21155;-87
2022/08/13 12:32:28;;;;;;;13.98;3.62;;;;;;;;;;2536444;54;21159;-86
2022/08/13 12:34:55;;;;;;;4.80;3.37;;;;;;;;;;2536241;54;21112;-93
2022/08/13 12:37:23;;;;;;;5.20;3.05;;;;;;;;;;2536719;54;21160;-85
2022/08/13 12:39:50;;;;;;;3.50;3.20;;;;;;;;;;2535851;54;21161;-86
2022/08/13 12:42:17;;;;;;;5.03;3.70;;;;;;;;;;2536765;54;21136;-89
2022/08/13 12:44:44;;;;;;;4.07;3.65;;;;;;;;;;2536430;54;21133;-86
2022/08/13 12:47:12;;;;;;;4.68;3.67;;;;;;;;;;2536395;54;21086;-87
2022/08/13 12:49:39;;;;;;;6.15;3.58;;;;;;;;;;2536311;54;21173;-86
2022/08/13 12:52:06;;;;;;;8.30;3.78;;;;;;;;;;2536254;54;21069;-85
2022/08/13 12:54:33;;;;;;;5.00;3.37;;;;;;;;;;2536968;54;21586;-85
2022/08/13 12:57:01;;;;;;;9.57;3.00;;;;;;;;;;2536215;54;21073;-86
2022/08/13 12:59:28;;;;;;;5.70;2.87;;;;;;;;;;2535796;54;21042;-85
2022/08/13 13:01:58;;;;;;;2.75;2.42;;;;;;;;;;2537198;54;21062;-87
2022/08/13 13:04:25;;;;;;;4.40;2.58;;;;;;;;;;2537481;54;21149;-86
2022/08/13 13:06:53;;;;;;;4.57;2.50;;;;;;;;;;2537119;54;21093;-85
2022/08/13 13:09:20;;;;;;;7.00;2.70;;;;;;;;;;2537578;54;21058;-81
2022/08/13 13:11:48;;;;;;;3.80;2.95;;;;;;;;;;2537194;54;21664;-86
2022/08/13 13:14:15;;;;;;;4.43;2.55;;;;;;;;;;2537920;54;21101;-85
2022/08/13 13:16:43;;;;;;;4.18;2.70;;;;;;;;;;2536506;54;21125;-85
2022/08/13 13:19:11;;;;;;;4.10;2.80;;;;;;;;;;2536636;54;21134;-88
2022/08/13 13:21:40;;;;;;;4.40;3.15;;;;;;;;;;2536867;54;21065;-87
2022/08/13 13:24:08;;;;;;;4.15;3.03;;;;;;;;;;2536591;54;21082;-86
2022/08/13 13:26:35;;;;;;;4.20;2.92;;;;;;;;;;2536172;54;21070;-85
2022/08/13 13:29:03;;;;;;;4.60;2.95;;;;;;;;;;2536385;54;21383;-86
2022/08/13 13:31:30;;;;;;;4.07;3.12;;;;;;;;;;2536239;54;21578;-87
2022/08/13 13:33:57;;;;;;;4.03;3.45;;;;;;;;;;2536516;54;21085;-87
2022/08/13 13:36:24;;;;;;;4.50;2.65;;;;;;;;;;2536280;54;21834;-84
2022/08/13 13:38:51;;;;;;;3.83;2.60;;;;;;;;;;2536308;54;21061;-87
2022/08/13 13:41:19;;;;;;;3.65;2.80;;;;;;;;;;2536815;54;21148;-90
2022/08/13 13:43:46;;;;;;;4.22;2.87;;;;;;;;;;2538211;54;21085;-83
2022/08/13 13:46:13;;;;;;;6.70;3.03;;;;;;;;;;2536306;54;21133;-88
2022/08/13 13:48:41;;;;;;;3.90;2.60;;;;;;;;;;2536091;54;21108;-86
2022/08/13 13:51:09;;;;;;;5.78;3.08;;;;;;;;;;2299335;58;21065;-89
2022/08/13 13:53:37;;;;;;;5.47;2.87;;;;;;;;;;2536328;54;21108;-86
2022/08/13 13:56:06;;;;;;;5.43;2.80;;;;;;;;;;2535969;54;21661;-86
2022/08/13 13:58:33;;;;;;;4.15;2.85;;;;;;;;;;2536333;54;21077;-86
2022/08/13 14:01:01;;;;;;;3.85;2.58;;;;;;;;;;2537341;54;21148;-87
2022/08/13 14:03:30;;;;;;;3.33;3.03;;;;;;;;;;2536729;54;21097;-87
2022/08/13 14:05:57;;;;;;;6.43;3.50;;;;;;;;;;2535183;54;21089;-87
2022/08/13 14:08:27;;;;;;;3.62;3.22;;;;;;;;;;2535964;54;21081;-86
2022/08/13 14:10:54;;;;;;;4.40;3.42;;;;;;;;;;2536768;54;21141;-85
2022/08/13 14:13:21;;;;;;;5.70;3.60;;;;;;;;;;2536721;54;21977;-86
2022/08/13 14:15:49;;;;;;;4.87;3.85;;;;;;;;;;2536114;54;21669;-85
2022/08/13 14:18:16;;;;;;;5.72;3.97;;;;;;;;;;2536597;54;21081;-85
2022/08/13 14:20:44;;;;;;;4.07;3.65;;;;;;;;;;2535984;54;21219;-86
2022/08/13 14:23:13;;;;;;;4.30;3.60;;;;;;;;;;2537305;54;21148;-86
2022/08/13 14:25:42;;;;;;;3.75;3.15;;;;;;;;;;2535533;54;21140;-87
2022/08/13 14:28:11;;;;;;;5.97;2.95;;;;;;;;;;2536534;54;21069;-84
2022/08/13 14:30:38;;;;;;;4.97;2.50;;;;;;;;;;2536410;54;21344;-85
2022/08/13 14:33:07;;;;;;;3.78;3.25;;;;;;;;;;2536846;54;21077;-84
2022/08/13 14:35:35;;;;;;;3.47;2.83;;;;;;;;;;2537009;54;21086;-86
2022/08/13 14:38:02;;;;;;;3.25;2.80;;;;;;;;;;2537011;54;21635;-84
2022/08/13 14:40:29;;;;;;;3.40;2.70;;;;;;;;;;2536912;54;21074;-85
2022/08/13 14:42:57;;;;;;;6.65;3.12;;;;;;;;;;2536715;54;21859;-84
2022/08/13 14:45:41;;;;;;;3.83;2.50;;;;;;;;;;2535892;54;21156;-85
2022/08/13 14:48:09;;;;;;;4.60;2.50;;;;;;;;;;2536730;54;21062;-85
2022/08/13 14:50:37;;;;;;;6.60;2.95;;;;;;;;;;2536605;54;21124;-84
2022/08/13 14:53:06;;;;;;;5.07;2.65;;;;;;;;;;2536466;54;21065;-87
2022/08/13 14:55:38;;;;;;;3.67;1.95;;;;;;;;;;2536432;54;21077;-84
2022/08/13 14:58:05;;;;;;;4.12;2.35;;;;;;;;;;2535937;54;21141;-85
2022/08/13 15:00:32;;;;;;;4.15;2.10;;;;;;;;;;2536251;54;21097;-87
2022/08/13 15:03:00;;;;;;;2.65;2.10;;;;;;;;;;2537085;54;21089;-85
2022/08/13 15:05:27;;;;;;;2.47;1.85;;;;;;;;;;2536272;54;21159;-86
2022/08/13 15:07:56;;;;;;;3.15;2.47;;;;;;;;;;2536959;54;21173;-89
2022/08/13 15:10:24;;;;;;;2.65;2.37;;;;;;;;;;2537466;54;21085;-88